sensor_id;sensor_type;location;lat;lon;timestamp;temperature;humidity
67763;DHT22;54566;52.022;5.582;2024-01-11T00:00:23;-3.70;95.30
67763;DHT22;54566;52.022;5.582;2024-01-11T00:02:55;-3.70;95.30
67763;DHT22;54566;52.022;5.582;2024-01-11T00:05:23;-3.70;95.30
67763;DHT22;54566;52.022;5.582;2024-01-11T00:07:52;-3.70;95.40
67763;DHT22;54566;52.022;5.582;2024-01-11T00:10:18;-3.70;95.40
67763;DHT22;54566;52.022;5.582;2024-01-11T00:12:55;-3.80;95.40
67763;DHT22;54566;52.022;5.582;2024-01-11T00:15:28;-3.80;95.40
67763;DHT22;54566;52.022;5.582;2024-01-11T00:17:58;-3.80;95.40
67763;DHT22;54566;52.022;5.582;2024-01-11T00:20:24;-3.80;95.50
67763;DHT22;54566;52.022;5.582;2024-01-11T00:22:53;-3.80;95.50
67763;DHT22;54566;52.022;5.582;2024-01-11T00:25:28;-3.90;95.50
67763;DHT22;54566;52.022;5.582;2024-01-11T00:27:54;-3.90;95.50
67763;DHT22;54566;52.022;5.582;2024-01-11T00:30:24;-3.90;95.50
67763;DHT22;54566;52.022;5.582;2024-01-11T00:33:08;-4.00;95.50
67763;DHT22;54566;52.022;5.582;2024-01-11T00:38:15;-4.00;95.60
67763;DHT22;54566;52.022;5.582;2024-01-11T00:40:49;-4.00;95.60
67763;DHT22;54566;52.022;5.582;2024-01-11T00:43:21;-4.10;95.70
67763;DHT22;54566;52.022;5.582;2024-01-11T00:45:47;-4.10;95.70
67763;DHT22;54566;52.022;5.582;2024-01-11T00:59:09;-4.10;95.80
67763;DHT22;54566;52.022;5.582;2024-01-11T01:01:36;-4.10;95.90
67763;DHT22;54566;52.022;5.582;2024-01-11T01:04:08;-4.20;95.90
67763;DHT22;54566;52.022;5.582;2024-01-11T01:06:57;-4.20;96.00
67763;DHT22;54566;52.022;5.582;2024-01-11T01:09:30;-4.20;96.00
67763;DHT22;54566;52.022;5.582;2024-01-11T01:11:59;-4.30;96.10
67763;DHT22;54566;52.022;5.582;2024-01-11T01:14:42;-4.30;96.10
67763;DHT22;54566;52.022;5.582;2024-01-11T01:23:33;-4.30;96.20
67763;DHT22;54566;52.022;5.582;2024-01-11T01:25:59;-4.40;96.20
67763;DHT22;54566;52.022;5.582;2024-01-11T01:28:48;-4.40;96.20
67763;DHT22;54566;52.022;5.582;2024-01-11T01:31:45;-4.40;96.30
67763;DHT22;54566;52.022;5.582;2024-01-11T01:34:46;-4.40;96.20
67763;DHT22;54566;52.022;5.582;2024-01-11T01:37:41;-4.40;96.30
67763;DHT22;54566;52.022;5.582;2024-01-11T01:40:58;-4.40;96.30
67763;DHT22;54566;52.022;5.582;2024-01-11T03:11:41;-5.00;97.00
67763;DHT22;54566;52.022;5.582;2024-01-11T03:14:07;-5.00;97.00
67763;DHT22;54566;52.022;5.582;2024-01-11T03:16:41;-5.00;96.80
67763;DHT22;54566;52.022;5.582;2024-01-11T03:19:12;-5.10;96.90
67763;DHT22;54566;52.022;5.582;2024-01-11T03:21:46;-5.10;96.90
67763;DHT22;54566;52.022;5.582;2024-01-11T03:24:17;-5.10;97.00
67763;DHT22;54566;52.022;5.582;2024-01-11T03:26:48;-5.10;97.00
67763;DHT22;54566;52.022;5.582;2024-01-11T03:29:41;-5.10;97.10
67763;DHT22;54566;52.022;5.582;2024-01-11T03:32:34;-5.20;97.20
67763;DHT22;54566;52.022;5.582;2024-01-11T05:23:41;-5.70;98.80
67763;DHT22;54566;52.022;5.582;2024-01-11T05:30:41;-5.70;98.80
67763;DHT22;54566;52.022;5.582;2024-01-11T05:37:08;-5.80;98.70
67763;DHT22;54566;52.022;5.582;2024-01-11T05:40:19;-5.80;98.80
67763;DHT22;54566;52.022;5.582;2024-01-11T05:42:59;-5.80;99.00
67763;DHT22;54566;52.022;5.582;2024-01-11T05:45:31;-5.70;99.60
67763;DHT22;54566;52.022;5.582;2024-01-11T05:48:16;-5.70;99.20
67763;DHT22;54566;52.022;5.582;2024-01-11T05:50:49;-5.80;98.80
67763;DHT22;54566;52.022;5.582;2024-01-11T05:53:32;-5.70;98.60
67763;DHT22;54566;52.022;5.582;2024-01-11T05:56:13;-5.80;98.60
67763;DHT22;54566;52.022;5.582;2024-01-11T05:58:50;-5.80;98.90
67763;DHT22;54566;52.022;5.582;2024-01-11T06:01:21;-5.80;98.60
67763;DHT22;54566;52.022;5.582;2024-01-11T06:03:55;-5.80;98.50
67763;DHT22;54566;52.022;5.582;2024-01-11T06:06:24;-5.90;98.40
67763;DHT22;54566;52.022;5.582;2024-01-11T06:09:00;-5.90;98.30
67763;DHT22;54566;52.022;5.582;2024-01-11T06:11:46;-5.90;98.50
67763;DHT22;54566;52.022;5.582;2024-01-11T06:14:14;-5.90;98.40
67763;DHT22;54566;52.022;5.582;2024-01-11T06:16:40;-5.90;98.20
67763;DHT22;54566;52.022;5.582;2024-01-11T06:19:09;-5.90;98.20
67763;DHT22;54566;52.022;5.582;2024-01-11T06:21:43;-5.90;98.30
67763;DHT22;54566;52.022;5.582;2024-01-11T06:24:32;-5.90;98.50
67763;DHT22;54566;52.022;5.582;2024-01-11T06:26:59;-5.80;98.80
67763;DHT22;54566;52.022;5.582;2024-01-11T06:29:28;-5.90;98.90
67763;DHT22;54566;52.022;5.582;2024-01-11T06:31:57;-5.80;98.40
67763;DHT22;54566;52.022;5.582;2024-01-11T06:34:28;-5.80;98.60
67763;DHT22;54566;52.022;5.582;2024-01-11T06:36:57;-5.80;98.80
67763;DHT22;54566;52.022;5.582;2024-01-11T06:39:26;-5.80;98.70
67763;DHT22;54566;52.022;5.582;2024-01-11T06:42:02;-5.80;98.80
67763;DHT22;54566;52.022;5.582;2024-01-11T06:44:27;-5.80;98.80
67763;DHT22;54566;52.022;5.582;2024-01-11T06:46:53;-5.80;98.70
67763;DHT22;54566;52.022;5.582;2024-01-11T06:52:17;-5.70;99.30
67763;DHT22;54566;52.022;5.582;2024-01-11T06:54:50;-5.70;99.00
67763;DHT22;54566;52.022;5.582;2024-01-11T06:57:18;-5.80;98.80
67763;DHT22;54566;52.022;5.582;2024-01-11T06:59:48;-5.70;99.00
67763;DHT22;54566;52.022;5.582;2024-01-11T07:02:30;-5.70;98.70
67763;DHT22;54566;52.022;5.582;2024-01-11T07:08:09;-5.80;98.90
67763;DHT22;54566;52.022;5.582;2024-01-11T07:10:44;-5.80;98.80
67763;DHT22;54566;52.022;5.582;2024-01-11T07:13:15;-5.70;99.40
67763;DHT22;54566;52.022;5.582;2024-01-11T07:15:50;-5.70;99.30
67763;DHT22;54566;52.022;5.582;2024-01-11T07:18:47;-5.70;99.70
67763;DHT22;54566;52.022;5.582;2024-01-11T07:21:31;-5.60;99.50
67763;DHT22;54566;52.022;5.582;2024-01-11T07:24:05;-5.60;99.60
67763;DHT22;54566;52.022;5.582;2024-01-11T07:27:04;-5.60;99.90
67763;DHT22;54566;52.022;5.582;2024-01-11T07:29:50;-5.70;99.50
67763;DHT22;54566;52.022;5.582;2024-01-11T07:32:22;-5.60;99.70
67763;DHT22;54566;52.022;5.582;2024-01-11T07:35:24;-5.60;99.40
67763;DHT22;54566;52.022;5.582;2024-01-11T07:37:56;-5.60;99.50
67763;DHT22;54566;52.022;5.582;2024-01-11T07:43:45;-5.60;99.70
67763;DHT22;54566;52.022;5.582;2024-01-11T07:49:47;-5.60;99.30
67763;DHT22;54566;52.022;5.582;2024-01-11T07:52:18;-5.60;99.10
67763;DHT22;54566;52.022;5.582;2024-01-11T07:58:12;-5.60;99.20
67763;DHT22;54566;52.022;5.582;2024-01-11T08:00:54;-5.60;99.20
67763;DHT22;54566;52.022;5.582;2024-01-11T08:03:21;-5.60;99.20
67763;DHT22;54566;52.022;5.582;2024-01-11T08:05:47;-5.50;99.30
67763;DHT22;54566;52.022;5.582;2024-01-11T08:08:20;-5.50;99.20
67763;DHT22;54566;52.022;5.582;2024-01-11T08:11:02;-5.50;99.10
67763;DHT22;54566;52.022;5.582;2024-01-11T08:13:31;-5.50;99.20
67763;DHT22;54566;52.022;5.582;2024-01-11T08:19:21;-5.40;99.20
67763;DHT22;54566;52.022;5.582;2024-01-11T08:21:49;-5.40;99.20
67763;DHT22;54566;52.022;5.582;2024-01-11T08:24:20;-5.40;99.80
67763;DHT22;54566;52.022;5.582;2024-01-11T08:26:51;-5.40;99.40
67763;DHT22;54566;52.022;5.582;2024-01-11T08:29:21;-5.30;99.40
67763;DHT22;54566;52.022;5.582;2024-01-11T08:31:53;-5.30;99.30
67763;DHT22;54566;52.022;5.582;2024-01-11T08:37:14;-5.30;99.50
67763;DHT22;54566;52.022;5.582;2024-01-11T08:39:45;-5.30;99.30
67763;DHT22;54566;52.022;5.582;2024-01-11T08:42:24;-5.30;99.10
67763;DHT22;54566;52.022;5.582;2024-01-11T08:44:56;-5.20;99.90
67763;DHT22;54566;52.022;5.582;2024-01-11T08:47:33;-5.20;99.90
67763;DHT22;54566;52.022;5.582;2024-01-11T08:50:02;-5.20;99.20
67763;DHT22;54566;52.022;5.582;2024-01-11T08:52:34;-5.10;99.10
67763;DHT22;54566;52.022;5.582;2024-01-11T08:55:00;-5.10;99.10
67763;DHT22;54566;52.022;5.582;2024-01-11T08:57:25;-5.10;99.10
67763;DHT22;54566;52.022;5.582;2024-01-11T08:59:52;-5.00;99.00
67763;DHT22;54566;52.022;5.582;2024-01-11T09:02:27;-5.00;99.10
67763;DHT22;54566;52.022;5.582;2024-01-11T09:04:59;-5.00;99.20
67763;DHT22;54566;52.022;5.582;2024-01-11T09:07:29;-4.90;99.30
67763;DHT22;54566;52.022;5.582;2024-01-11T09:10:22;-4.90;99.20
67763;DHT22;54566;52.022;5.582;2024-01-11T09:12:53;-4.80;99.50
67763;DHT22;54566;52.022;5.582;2024-01-11T09:15:29;-4.80;99.80
67763;DHT22;54566;52.022;5.582;2024-01-11T09:17:55;-4.70;99.50
67763;DHT22;54566;52.022;5.582;2024-01-11T09:20:25;-4.60;99.40
67763;DHT22;54566;52.022;5.582;2024-01-11T09:22:54;-4.60;99.40
67763;DHT22;54566;52.022;5.582;2024-01-11T09:25:37;-4.50;99.50
67763;DHT22;54566;52.022;5.582;2024-01-11T09:28:03;-4.40;99.30
67763;DHT22;54566;52.022;5.582;2024-01-11T09:30:32;-4.30;99.10
67763;DHT22;54566;52.022;5.582;2024-01-11T09:33:03;-4.30;99.00
67763;DHT22;54566;52.022;5.582;2024-01-11T09:35:32;-4.20;99.00
67763;DHT22;54566;52.022;5.582;2024-01-11T09:38:07;-4.10;98.90
67763;DHT22;54566;52.022;5.582;2024-01-11T09:41:04;-4.00;99.00
67763;DHT22;54566;52.022;5.582;2024-01-11T09:43:35;-4.00;99.00
67763;DHT22;54566;52.022;5.582;2024-01-11T09:46:04;-3.90;98.90
67763;DHT22;54566;52.022;5.582;2024-01-11T09:48:56;-3.80;98.90
67763;DHT22;54566;52.022;5.582;2024-01-11T09:51:30;-3.70;99.00
67763;DHT22;54566;52.022;5.582;2024-01-11T09:53:58;-3.60;99.00
67763;DHT22;54566;52.022;5.582;2024-01-11T09:56:26;-3.50;99.00
67763;DHT22;54566;52.022;5.582;2024-01-11T09:58:58;-3.50;98.90
67763;DHT22;54566;52.022;5.582;2024-01-11T10:01:36;-3.40;99.00
67763;DHT22;54566;52.022;5.582;2024-01-11T10:04:04;-3.30;99.10
67763;DHT22;54566;52.022;5.582;2024-01-11T10:06:34;-3.20;99.20
67763;DHT22;54566;52.022;5.582;2024-01-11T10:09:03;-3.10;99.30
67763;DHT22;54566;52.022;5.582;2024-01-11T10:11:35;-3.10;99.00
67763;DHT22;54566;52.022;5.582;2024-01-11T10:14:08;-3.00;99.80
67763;DHT22;54566;52.022;5.582;2024-01-11T10:16:36;-2.90;99.50
67763;DHT22;54566;52.022;5.582;2024-01-11T10:19:05;-2.80;99.40
67763;DHT22;54566;52.022;5.582;2024-01-11T10:21:40;-2.70;99.90
67763;DHT22;54566;52.022;5.582;2024-01-11T10:24:08;-2.60;99.60
67763;DHT22;54566;52.022;5.582;2024-01-11T10:26:43;-2.50;99.60
67763;DHT22;54566;52.022;5.582;2024-01-11T10:29:15;-2.30;99.50
67763;DHT22;54566;52.022;5.582;2024-01-11T10:31:44;-2.20;99.70
67763;DHT22;54566;52.022;5.582;2024-01-11T10:34:09;-2.00;99.90
67763;DHT22;54566;52.022;5.582;2024-01-11T10:36:38;-1.90;99.90
67763;DHT22;54566;52.022;5.582;2024-01-11T10:39:08;-1.90;99.90
67763;DHT22;54566;52.022;5.582;2024-01-11T10:41:42;-1.90;99.90
67763;DHT22;54566;52.022;5.582;2024-01-11T10:44:19;-1.90;99.90
67763;DHT22;54566;52.022;5.582;2024-01-11T10:47:03;-1.80;99.90
67763;DHT22;54566;52.022;5.582;2024-01-11T10:49:40;-1.70;99.90
67763;DHT22;54566;52.022;5.582;2024-01-11T10:52:28;-1.60;99.90
67763;DHT22;54566;52.022;5.582;2024-01-11T10:55:04;-1.60;99.90
67763;DHT22;54566;52.022;5.582;2024-01-11T10:57:34;-1.50;99.90
67763;DHT22;54566;52.022;5.582;2024-01-11T11:00:20;-1.40;99.90
67763;DHT22;54566;52.022;5.582;2024-01-11T11:03:00;-1.40;99.90
67763;DHT22;54566;52.022;5.582;2024-01-11T11:05:29;-1.30;99.90
67763;DHT22;54566;52.022;5.582;2024-01-11T11:07:56;-1.20;99.90
67763;DHT22;54566;52.022;5.582;2024-01-11T11:10:24;-1.20;99.90
67763;DHT22;54566;52.022;5.582;2024-01-11T11:15:35;-1.10;99.90
67763;DHT22;54566;52.022;5.582;2024-01-11T11:18:03;-1.00;99.90
67763;DHT22;54566;52.022;5.582;2024-01-11T11:20:32;-1.00;99.90
67763;DHT22;54566;52.022;5.582;2024-01-11T11:23:10;-0.90;99.90
67763;DHT22;54566;52.022;5.582;2024-01-11T11:25:46;-0.80;99.90
67763;DHT22;54566;52.022;5.582;2024-01-11T11:28:16;-0.80;99.90
67763;DHT22;54566;52.022;5.582;2024-01-11T11:30:48;-0.80;99.90
67763;DHT22;54566;52.022;5.582;2024-01-11T11:33:20;-0.70;99.90
67763;DHT22;54566;52.022;5.582;2024-01-11T11:35:47;-0.70;99.90
67763;DHT22;54566;52.022;5.582;2024-01-11T11:38:28;-0.60;99.90
67763;DHT22;54566;52.022;5.582;2024-01-11T11:40:59;-0.50;99.90
67763;DHT22;54566;52.022;5.582;2024-01-11T11:43:39;-0.40;99.90
67763;DHT22;54566;52.022;5.582;2024-01-11T11:46:05;-0.30;99.90
67763;DHT22;54566;52.022;5.582;2024-01-11T11:51:18;-0.20;99.90
67763;DHT22;54566;52.022;5.582;2024-01-11T11:53:46;-0.20;99.90
67763;DHT22;54566;52.022;5.582;2024-01-11T11:56:22;-0.10;99.90
67763;DHT22;54566;52.022;5.582;2024-01-11T11:58:57;-0.10;99.90
67763;DHT22;54566;52.022;5.582;2024-01-11T12:01:26;0.00;99.90
67763;DHT22;54566;52.022;5.582;2024-01-11T12:03:52;0.00;99.90
67763;DHT22;54566;52.022;5.582;2024-01-11T12:06:20;0.00;99.90
67763;DHT22;54566;52.022;5.582;2024-01-11T12:08:47;0.10;99.90
67763;DHT22;54566;52.022;5.582;2024-01-11T12:11:20;0.10;99.90
67763;DHT22;54566;52.022;5.582;2024-01-11T12:13:52;0.20;99.90
67763;DHT22;54566;52.022;5.582;2024-01-11T12:16:25;0.20;99.90
67763;DHT22;54566;52.022;5.582;2024-01-11T12:18:54;0.30;99.90
67763;DHT22;54566;52.022;5.582;2024-01-11T12:21:20;0.30;99.90
67763;DHT22;54566;52.022;5.582;2024-01-11T12:23:45;0.40;99.90
67763;DHT22;54566;52.022;5.582;2024-01-11T12:26:16;0.50;99.90
67763;DHT22;54566;52.022;5.582;2024-01-11T12:28:47;0.50;99.90
67763;DHT22;54566;52.022;5.582;2024-01-11T12:31:13;0.50;99.90
67763;DHT22;54566;52.022;5.582;2024-01-11T12:33:38;0.60;99.90
67763;DHT22;54566;52.022;5.582;2024-01-11T12:36:07;0.60;99.90
67763;DHT22;54566;52.022;5.582;2024-01-11T12:38:46;0.70;99.90
67763;DHT22;54566;52.022;5.582;2024-01-11T12:41:13;0.70;99.90
67763;DHT22;54566;52.022;5.582;2024-01-11T12:43:39;0.80;99.90
67763;DHT22;54566;52.022;5.582;2024-01-11T12:46:12;0.90;99.90
67763;DHT22;54566;52.022;5.582;2024-01-11T12:48:39;0.90;99.90
67763;DHT22;54566;52.022;5.582;2024-01-11T12:51:08;0.90;99.90
67763;DHT22;54566;52.022;5.582;2024-01-11T12:53:48;1.00;99.90
67763;DHT22;54566;52.022;5.582;2024-01-11T12:56:18;1.00;99.90
67763;DHT22;54566;52.022;5.582;2024-01-11T12:58:44;1.10;99.90
67763;DHT22;54566;52.022;5.582;2024-01-11T13:01:12;1.10;99.90
67763;DHT22;54566;52.022;5.582;2024-01-11T13:03:43;1.10;99.90
67763;DHT22;54566;52.022;5.582;2024-01-11T13:06:12;1.20;99.90
67763;DHT22;54566;52.022;5.582;2024-01-11T13:08:38;1.20;99.90
67763;DHT22;54566;52.022;5.582;2024-01-11T13:11:08;1.20;99.90
67763;DHT22;54566;52.022;5.582;2024-01-11T13:13:39;1.20;99.90
67763;DHT22;54566;52.022;5.582;2024-01-11T13:16:05;1.20;99.90
67763;DHT22;54566;52.022;5.582;2024-01-11T13:18:40;1.20;99.90
67763;DHT22;54566;52.022;5.582;2024-01-11T13:21:06;1.20;99.90
67763;DHT22;54566;52.022;5.582;2024-01-11T13:23:32;1.20;99.90
67763;DHT22;54566;52.022;5.582;2024-01-11T13:25:59;1.30;99.90
67763;DHT22;54566;52.022;5.582;2024-01-11T13:28:24;1.30;99.90
67763;DHT22;54566;52.022;5.582;2024-01-11T13:30:52;1.40;99.90
67763;DHT22;54566;52.022;5.582;2024-01-11T13:33:17;1.30;99.90
67763;DHT22;54566;52.022;5.582;2024-01-11T13:35:45;1.40;99.90
67763;DHT22;54566;52.022;5.582;2024-01-11T13:38:11;1.40;99.90
67763;DHT22;54566;52.022;5.582;2024-01-11T13:40:37;1.40;99.90
67763;DHT22;54566;52.022;5.582;2024-01-11T13:43:05;1.50;99.90
67763;DHT22;54566;52.022;5.582;2024-01-11T13:45:31;1.50;99.90
67763;DHT22;54566;52.022;5.582;2024-01-11T13:47:58;1.60;99.90
67763;DHT22;54566;52.022;5.582;2024-01-11T13:50:24;1.60;99.90
67763;DHT22;54566;52.022;5.582;2024-01-11T13:52:50;1.70;99.90
67763;DHT22;54566;52.022;5.582;2024-01-11T13:55:16;1.60;99.90
67763;DHT22;54566;52.022;5.582;2024-01-11T13:58:02;1.60;99.90
67763;DHT22;54566;52.022;5.582;2024-01-11T14:00:33;1.60;99.90
67763;DHT22;54566;52.022;5.582;2024-01-11T14:02:59;1.60;99.90
67763;DHT22;54566;52.022;5.582;2024-01-11T14:05:24;1.70;99.90
67763;DHT22;54566;52.022;5.582;2024-01-11T14:07:53;1.70;99.90
67763;DHT22;54566;52.022;5.582;2024-01-11T14:10:24;1.70;99.90
67763;DHT22;54566;52.022;5.582;2024-01-11T14:12:50;1.60;99.90
67763;DHT22;54566;52.022;5.582;2024-01-11T14:15:15;1.60;99.90
67763;DHT22;54566;52.022;5.582;2024-01-11T14:17:41;1.60;99.90
67763;DHT22;54566;52.022;5.582;2024-01-11T14:20:09;1.60;99.90
67763;DHT22;54566;52.022;5.582;2024-01-11T14:22:39;1.60;99.90
67763;DHT22;54566;52.022;5.582;2024-01-11T14:25:05;1.70;99.90
67763;DHT22;54566;52.022;5.582;2024-01-11T14:27:31;1.70;99.90
67763;DHT22;54566;52.022;5.582;2024-01-11T14:29:57;1.70;99.90
67763;DHT22;54566;52.022;5.582;2024-01-11T14:32:22;1.70;99.90
67763;DHT22;54566;52.022;5.582;2024-01-11T14:34:48;1.70;99.90
67763;DHT22;54566;52.022;5.582;2024-01-11T14:37:14;1.70;99.90
67763;DHT22;54566;52.022;5.582;2024-01-11T14:39:43;1.70;99.90
67763;DHT22;54566;52.022;5.582;2024-01-11T14:42:11;1.70;99.90
67763;DHT22;54566;52.022;5.582;2024-01-11T14:44:47;1.70;99.90
67763;DHT22;54566;52.022;5.582;2024-01-11T14:47:19;1.70;99.90
67763;DHT22;54566;52.022;5.582;2024-01-11T14:49:46;1.70;99.90
67763;DHT22;54566;52.022;5.582;2024-01-11T14:52:12;1.70;99.90
67763;DHT22;54566;52.022;5.582;2024-01-11T14:54:38;1.70;99.90
67763;DHT22;54566;52.022;5.582;2024-01-11T14:57:04;1.70;99.90
67763;DHT22;54566;52.022;5.582;2024-01-11T14:59:31;1.70;99.90
67763;DHT22;54566;52.022;5.582;2024-01-11T15:02:00;1.70;99.90
67763;DHT22;54566;52.022;5.582;2024-01-11T15:04:26;1.70;99.90
67763;DHT22;54566;52.022;5.582;2024-01-11T15:06:52;1.70;99.90
67763;DHT22;54566;52.022;5.582;2024-01-11T15:09:17;1.70;99.90
67763;DHT22;54566;52.022;5.582;2024-01-11T15:11:47;1.70;99.90
67763;DHT22;54566;52.022;5.582;2024-01-11T15:14:13;1.60;99.90
67763;DHT22;54566;52.022;5.582;2024-01-11T15:16:41;1.70;99.90
67763;DHT22;54566;52.022;5.582;2024-01-11T15:19:10;1.70;99.90
67763;DHT22;54566;52.022;5.582;2024-01-11T15:21:35;1.70;99.90
67763;DHT22;54566;52.022;5.582;2024-01-11T15:24:05;1.70;99.90
67763;DHT22;54566;52.022;5.582;2024-01-11T15:26:33;1.70;99.90
67763;DHT22;54566;52.022;5.582;2024-01-11T15:28:59;1.70;99.90
67763;DHT22;54566;52.022;5.582;2024-01-11T15:31:30;1.70;99.90
67763;DHT22;54566;52.022;5.582;2024-01-11T15:34:01;1.70;99.90
67763;DHT22;54566;52.022;5.582;2024-01-11T15:36:35;1.60;99.90
67763;DHT22;54566;52.022;5.582;2024-01-11T15:39:00;1.60;99.90
67763;DHT22;54566;52.022;5.582;2024-01-11T15:41:26;1.60;99.90
67763;DHT22;54566;52.022;5.582;2024-01-11T15:43:53;1.60;99.90
67763;DHT22;54566;52.022;5.582;2024-01-11T15:46:22;1.60;99.90
67763;DHT22;54566;52.022;5.582;2024-01-11T15:48:48;1.60;99.90
67763;DHT22;54566;52.022;5.582;2024-01-11T15:51:17;1.60;99.90
67763;DHT22;54566;52.022;5.582;2024-01-11T15:53:47;1.60;99.90
67763;DHT22;54566;52.022;5.582;2024-01-11T15:56:13;1.50;99.90
67763;DHT22;54566;52.022;5.582;2024-01-11T15:58:41;1.50;99.90
67763;DHT22;54566;52.022;5.582;2024-01-11T16:01:08;1.40;99.90
67763;DHT22;54566;52.022;5.582;2024-01-11T16:03:35;1.40;99.90
67763;DHT22;54566;52.022;5.582;2024-01-11T16:06:20;1.40;99.90
67763;DHT22;54566;52.022;5.582;2024-01-11T16:08:50;1.50;99.90
67763;DHT22;54566;52.022;5.582;2024-01-11T16:11:16;1.50;99.90
67763;DHT22;54566;52.022;5.582;2024-01-11T16:13:42;1.50;99.90
67763;DHT22;54566;52.022;5.582;2024-01-11T16:16:17;1.50;99.90
67763;DHT22;54566;52.022;5.582;2024-01-11T16:18:43;1.50;99.90
67763;DHT22;54566;52.022;5.582;2024-01-11T16:21:29;1.50;99.90
67763;DHT22;54566;52.022;5.582;2024-01-11T16:23:57;1.50;99.90
67763;DHT22;54566;52.022;5.582;2024-01-11T16:26:25;1.50;99.90
67763;DHT22;54566;52.022;5.582;2024-01-11T16:28:51;1.50;99.90
67763;DHT22;54566;52.022;5.582;2024-01-11T16:31:20;1.50;99.90
67763;DHT22;54566;52.022;5.582;2024-01-11T16:33:52;1.40;99.90
67763;DHT22;54566;52.022;5.582;2024-01-11T16:36:17;1.40;99.90
67763;DHT22;54566;52.022;5.582;2024-01-11T16:38:43;1.40;99.90
67763;DHT22;54566;52.022;5.582;2024-01-11T16:41:09;1.50;99.90
67763;DHT22;54566;52.022;5.582;2024-01-11T16:43:35;1.40;99.90
67763;DHT22;54566;52.022;5.582;2024-01-11T16:46:01;1.40;99.90
67763;DHT22;54566;52.022;5.582;2024-01-11T16:48:29;1.50;99.90
67763;DHT22;54566;52.022;5.582;2024-01-11T16:50:58;1.50;99.90
67763;DHT22;54566;52.022;5.582;2024-01-11T16:53:30;1.50;99.90
67763;DHT22;54566;52.022;5.582;2024-01-11T16:55:55;1.50;99.90
67763;DHT22;54566;52.022;5.582;2024-01-11T16:58:30;1.50;99.90
67763;DHT22;54566;52.022;5.582;2024-01-11T17:00:59;1.50;99.90
67763;DHT22;54566;52.022;5.582;2024-01-11T17:03:25;1.50;99.90
67763;DHT22;54566;52.022;5.582;2024-01-11T17:05:53;1.50;99.90
67763;DHT22;54566;52.022;5.582;2024-01-11T17:08:23;1.50;99.90
67763;DHT22;54566;52.022;5.582;2024-01-11T17:10:49;1.50;99.90
67763;DHT22;54566;52.022;5.582;2024-01-11T17:13:16;1.50;99.90
67763;DHT22;54566;52.022;5.582;2024-01-11T17:15:42;1.50;99.90
67763;DHT22;54566;52.022;5.582;2024-01-11T17:18:20;1.50;99.90
67763;DHT22;54566;52.022;5.582;2024-01-11T17:20:48;1.50;99.90
67763;DHT22;54566;52.022;5.582;2024-01-11T17:23:14;1.50;99.90
67763;DHT22;54566;52.022;5.582;2024-01-11T17:25:43;1.50;99.90
67763;DHT22;54566;52.022;5.582;2024-01-11T17:28:12;1.50;99.90
67763;DHT22;54566;52.022;5.582;2024-01-11T17:30:38;1.50;99.90
67763;DHT22;54566;52.022;5.582;2024-01-11T17:33:05;1.50;99.90
67763;DHT22;54566;52.022;5.582;2024-01-11T17:35:33;1.50;99.90
67763;DHT22;54566;52.022;5.582;2024-01-11T17:37:59;1.50;99.90
67763;DHT22;54566;52.022;5.582;2024-01-11T17:40:28;1.50;99.90
67763;DHT22;54566;52.022;5.582;2024-01-11T17:43:01;1.50;99.90
67763;DHT22;54566;52.022;5.582;2024-01-11T17:45:30;1.50;99.90
67763;DHT22;54566;52.022;5.582;2024-01-11T17:48:01;1.50;99.90
67763;DHT22;54566;52.022;5.582;2024-01-11T17:50:34;1.60;99.90
67763;DHT22;54566;52.022;5.582;2024-01-11T17:53:03;1.60;99.90
67763;DHT22;54566;52.022;5.582;2024-01-11T17:55:29;1.60;99.90
67763;DHT22;54566;52.022;5.582;2024-01-11T17:57:55;1.60;99.90
67763;DHT22;54566;52.022;5.582;2024-01-11T18:00:22;1.60;99.90
67763;DHT22;54566;52.022;5.582;2024-01-11T18:02:50;1.60;99.90
67763;DHT22;54566;52.022;5.582;2024-01-11T18:05:18;1.60;99.90
67763;DHT22;54566;52.022;5.582;2024-01-11T18:07:45;1.60;99.90
67763;DHT22;54566;52.022;5.582;2024-01-11T18:10:10;1.70;99.90
67763;DHT22;54566;52.022;5.582;2024-01-11T18:12:36;1.70;99.90
67763;DHT22;54566;52.022;5.582;2024-01-11T18:15:02;1.70;99.90
67763;DHT22;54566;52.022;5.582;2024-01-11T18:17:30;1.70;99.90
67763;DHT22;54566;52.022;5.582;2024-01-11T18:19:55;1.70;99.90
67763;DHT22;54566;52.022;5.582;2024-01-11T18:22:21;1.70;99.90
67763;DHT22;54566;52.022;5.582;2024-01-11T18:24:49;1.70;99.90
67763;DHT22;54566;52.022;5.582;2024-01-11T18:27:15;1.70;99.90
67763;DHT22;54566;52.022;5.582;2024-01-11T18:29:43;1.70;99.90
67763;DHT22;54566;52.022;5.582;2024-01-11T18:32:08;1.70;99.90
67763;DHT22;54566;52.022;5.582;2024-01-11T18:34:34;1.70;99.90
67763;DHT22;54566;52.022;5.582;2024-01-11T18:37:00;1.70;99.90
67763;DHT22;54566;52.022;5.582;2024-01-11T18:39:26;1.80;99.90
67763;DHT22;54566;52.022;5.582;2024-01-11T18:41:53;1.80;99.90
67763;DHT22;54566;52.022;5.582;2024-01-11T18:44:18;1.80;99.90
67763;DHT22;54566;52.022;5.582;2024-01-11T18:46:45;1.80;99.90
67763;DHT22;54566;52.022;5.582;2024-01-11T18:49:13;1.80;99.90
67763;DHT22;54566;52.022;5.582;2024-01-11T18:51:40;1.80;99.90
67763;DHT22;54566;52.022;5.582;2024-01-11T18:54:05;1.80;99.90
67763;DHT22;54566;52.022;5.582;2024-01-11T18:56:31;1.80;99.90
67763;DHT22;54566;52.022;5.582;2024-01-11T18:58:57;1.70;99.90
67763;DHT22;54566;52.022;5.582;2024-01-11T19:01:23;1.70;99.90
67763;DHT22;54566;52.022;5.582;2024-01-11T19:03:51;1.80;99.90
67763;DHT22;54566;52.022;5.582;2024-01-11T19:06:17;1.80;99.90
67763;DHT22;54566;52.022;5.582;2024-01-11T19:08:42;1.70;99.90
67763;DHT22;54566;52.022;5.582;2024-01-11T19:11:08;1.80;99.90
67763;DHT22;54566;52.022;5.582;2024-01-11T19:13:34;1.80;99.90
67763;DHT22;54566;52.022;5.582;2024-01-11T19:16:00;1.80;99.90
67763;DHT22;54566;52.022;5.582;2024-01-11T19:18:27;1.80;99.90
67763;DHT22;54566;52.022;5.582;2024-01-11T19:20:53;1.80;99.90
67763;DHT22;54566;52.022;5.582;2024-01-11T19:23:22;1.80;99.90
67763;DHT22;54566;52.022;5.582;2024-01-11T19:25:57;1.80;99.90
67763;DHT22;54566;52.022;5.582;2024-01-11T19:28:23;1.80;99.90
67763;DHT22;54566;52.022;5.582;2024-01-11T19:30:49;1.80;99.90
67763;DHT22;54566;52.022;5.582;2024-01-11T19:33:18;1.80;99.90
67763;DHT22;54566;52.022;5.582;2024-01-11T19:35:48;1.80;99.90
67763;DHT22;54566;52.022;5.582;2024-01-11T19:38:19;1.80;99.90
67763;DHT22;54566;52.022;5.582;2024-01-11T19:40:47;1.80;99.90
67763;DHT22;54566;52.022;5.582;2024-01-11T19:43:30;1.90;99.90
67763;DHT22;54566;52.022;5.582;2024-01-11T19:46:22;1.80;99.90
67763;DHT22;54566;52.022;5.582;2024-01-11T19:48:48;1.80;99.90
67763;DHT22;54566;52.022;5.582;2024-01-11T19:51:17;1.80;99.90
67763;DHT22;54566;52.022;5.582;2024-01-11T19:53:43;1.80;99.90
67763;DHT22;54566;52.022;5.582;2024-01-11T19:56:20;1.90;99.90
67763;DHT22;54566;52.022;5.582;2024-01-11T19:58:54;1.90;99.90
67763;DHT22;54566;52.022;5.582;2024-01-11T20:01:19;1.90;99.90
67763;DHT22;54566;52.022;5.582;2024-01-11T20:03:48;1.90;99.90
67763;DHT22;54566;52.022;5.582;2024-01-11T20:06:14;1.90;99.90
67763;DHT22;54566;52.022;5.582;2024-01-11T20:08:40;1.90;99.90
67763;DHT22;54566;52.022;5.582;2024-01-11T20:11:05;1.90;99.90
67763;DHT22;54566;52.022;5.582;2024-01-11T20:13:37;1.90;99.90
67763;DHT22;54566;52.022;5.582;2024-01-11T20:16:02;1.90;99.90